createdAt,value
2017-04-18T00:00:11.785Z,17.22
2017-04-18T00:01:25.056Z,17.16
2017-04-18T00:02:38.493Z,17.15
2017-04-18T00:03:51.734Z,17.12
2017-04-18T00:05:04.997Z,17.11
2017-04-18T00:06:18.272Z,17.26
2017-04-18T00:07:31.526Z,17.26
2017-04-18T00:08:44.813Z,17.15
2017-04-18T00:09:58.028Z,17.26
2017-04-18T00:11:10.270Z,17.36
2017-04-18T00:12:23.506Z,17.37
2017-04-18T00:13:36.744Z,17.33
2017-04-18T00:14:49.994Z,17.33
2017-04-18T00:16:03.246Z,17.41
2017-04-18T00:17:16.795Z,17.33
2017-04-18T00:18:30.113Z,17.46
2017-04-18T00:19:43.348Z,17.37
2017-04-18T00:20:56.575Z,17.33
2017-04-18T00:22:09.788Z,17.37
2017-04-18T00:23:23.044Z,17.49
2017-04-18T00:24:36.287Z,17.37
2017-04-18T00:25:49.524Z,17.43
2017-04-18T00:27:02.729Z,17.37
2017-04-18T00:28:15.974Z,17.37
2017-04-18T00:29:28.704Z,17.46
2017-04-18T00:30:41.952Z,17.34
2017-04-18T00:31:54.678Z,17.33
2017-04-18T00:33:07.983Z,17.38
2017-04-18T00:34:21.332Z,17.43
2017-04-18T00:35:34.566Z,17.48
2017-04-18T00:36:47.761Z,17.41
2017-04-18T00:38:00.491Z,17.44
2017-04-18T00:39:13.241Z,17.56
2017-04-18T00:40:26.464Z,17.51
2017-04-18T00:41:39.707Z,17.46
2017-04-18T00:42:52.944Z,17.51
2017-04-18T00:44:06.171Z,17.56
2017-04-18T00:45:19.377Z,17.54
2017-04-18T00:46:32.626Z,17.55
2017-04-18T00:47:45.374Z,17.55
2017-04-18T00:48:58.072Z,17.68
2017-04-18T00:50:10.777Z,17.66
2017-04-18T00:51:23.457Z,17.62
2017-04-18T00:52:36.683Z,17.58
2017-04-18T00:53:49.939Z,17.62
2017-04-18T00:55:03.183Z,17.63
2017-04-18T00:56:16.415Z,17.58
2017-04-18T00:57:29.631Z,17.62
2017-04-18T00:58:42.901Z,17.62
2017-04-18T00:59:56.142Z,17.55
2017-04-18T01:01:09.396Z,17.62
2017-04-18T01:02:22.607Z,17.59
2017-04-18T01:03:35.885Z,17.64
2017-04-18T01:04:49.132Z,17.74
2017-04-18T01:06:02.386Z,17.68
2017-04-18T01:07:15.113Z,17.71
2017-04-18T01:08:28.376Z,17.64
2017-04-18T01:09:41.102Z,17.66
2017-04-18T01:10:54.368Z,17.64
2017-04-18T01:12:07.617Z,17.7
2017-04-18T01:13:20.833Z,17.66
2017-04-18T01:14:34.037Z,17.62
2017-04-18T01:15:46.747Z,17.71
2017-04-18T01:16:59.972Z,17.66
2017-04-18T01:18:13.197Z,17.68
2017-04-18T01:19:26.424Z,17.68
2017-04-18T01:20:39.152Z,17.63
2017-04-18T01:21:52.727Z,17.68
2017-04-18T01:23:05.959Z,17.68
2017-04-18T01:24:19.212Z,17.68
2017-04-18T01:25:32.420Z,17.68
2017-04-18T01:26:45.672Z,17.7
2017-04-18T01:27:58.926Z,17.7
2017-04-18T01:29:12.192Z,17.64
2017-04-18T01:30:25.435Z,17.72
2017-04-18T01:31:38.626Z,17.75
2017-04-18T01:32:51.847Z,17.77
2017-04-18T01:34:05.081Z,17.63
2017-04-18T01:35:18.306Z,17.64
2017-04-18T01:36:31.037Z,17.74
2017-04-18T01:37:44.578Z,17.77
2017-04-18T01:38:57.780Z,17.71
2017-04-18T01:40:11.010Z,17.7
2017-04-18T01:41:24.221Z,17.75
2017-04-18T01:42:36.922Z,17.74
2017-04-18T01:43:49.637Z,17.72
2017-04-18T01:45:02.838Z,17.7
2017-04-18T01:46:15.588Z,17.7
2017-04-18T01:47:28.835Z,17.7
2017-04-18T01:48:42.097Z,17.7
2017-04-18T01:49:55.321Z,17.7
2017-04-18T01:51:08.555Z,17.66
2017-04-18T01:52:21.763Z,17.62
2017-04-18T01:53:35.828Z,17.64
2017-04-18T01:54:49.093Z,17.66
2017-04-18T01:56:02.341Z,17.63
2017-04-18T01:57:15.544Z,17.63
2017-04-18T01:58:28.799Z,17.51
2017-04-18T01:59:42.018Z,17.51
2017-04-18T02:00:55.238Z,17.54
2017-04-18T02:02:08.474Z,17.48
2017-04-18T02:03:21.713Z,17.49
2017-04-18T02:04:34.411Z,17.4
2017-04-18T02:05:47.624Z,17.4
2017-04-18T02:07:00.858Z,17.37
2017-04-18T02:08:14.135Z,17.36
2017-04-18T02:09:27.407Z,17.46
2017-04-18T02:10:41.035Z,17.4
2017-04-18T02:11:54.249Z,17.34
2017-04-18T02:13:07.486Z,17.33
2017-04-18T02:14:20.727Z,17.28
2017-04-18T02:15:33.967Z,17.31
2017-04-18T02:16:47.219Z,17.33
2017-04-18T02:17:59.971Z,17.31
2017-04-18T02:19:13.201Z,17.33
2017-04-18T02:20:26.507Z,17.36
2017-04-18T02:21:39.244Z,17.33
2017-04-18T02:22:52.507Z,17.33
2017-04-18T02:24:05.761Z,17.31
2017-04-18T02:25:19.013Z,17.43
2017-04-18T02:26:31.729Z,17.34
2017-04-18T02:27:44.940Z,17.43
2017-04-18T02:28:57.746Z,17.37
2017-04-18T02:30:10.472Z,17.36
2017-04-18T02:31:23.742Z,17.33
2017-04-18T02:32:36.457Z,17.43
2017-04-18T02:33:49.688Z,17.4
2017-04-18T02:35:02.423Z,17.36
2017-04-18T02:36:15.128Z,17.3
2017-04-18T02:37:28.371Z,17.23
2017-04-18T02:38:41.617Z,17.22
2017-04-18T02:39:54.834Z,17.21
2017-04-18T02:41:08.103Z,17.12
2017-04-18T02:42:21.316Z,17.11
2017-04-18T02:43:34.017Z,17.14
2017-04-18T02:44:47.255Z,17.03
2017-04-18T02:46:00.456Z,17.04
2017-04-18T02:47:13.787Z,16.94
2017-04-18T02:48:27.002Z,16.94
2017-04-18T02:49:39.715Z,16.86
2017-04-18T02:50:52.939Z,16.93
2017-04-18T02:52:06.161Z,16.89
2017-04-18T02:53:19.386Z,16.82
2017-04-18T02:54:32.660Z,16.85
2017-04-18T02:55:45.388Z,16.88
2017-04-18T02:56:58.632Z,16.83
2017-04-18T02:58:11.852Z,16.82
2017-04-18T02:59:25.067Z,16.83
2017-04-18T03:00:38.298Z,16.86
2017-04-18T03:01:51.524Z,16.76
2017-04-18T03:03:04.549Z,16.78
2017-04-18T03:04:17.821Z,16.76
2017-04-18T03:05:30.004Z,16.67
2017-04-18T03:06:43.261Z,16.6
2017-04-18T03:07:56.494Z,16.63
2017-04-18T03:09:09.704Z,16.79
2017-04-18T03:10:22.970Z,16.68
2017-04-18T03:11:36.182Z,16.71
2017-04-18T03:12:49.431Z,16.79
2017-04-18T03:14:02.689Z,16.71
2017-04-18T03:15:15.875Z,16.81
2017-04-18T03:16:29.097Z,16.75
2017-04-18T03:17:42.336Z,16.68
2017-04-18T03:18:55.604Z,16.81
2017-04-18T03:20:09.052Z,16.81
2017-04-18T03:21:22.262Z,16.79
2017-04-18T03:22:34.975Z,16.79
2017-04-18T03:23:48.217Z,16.83
2017-04-18T03:25:01.428Z,16.83
2017-04-18T03:26:14.717Z,16.81
2017-04-18T03:27:27.958Z,16.89
2017-04-18T03:28:41.204Z,16.89
2017-04-18T03:29:54.433Z,16.83
2017-04-18T03:31:07.654Z,16.79
2017-04-18T03:32:20.839Z,16.68
2017-04-18T03:33:34.096Z,16.68
2017-04-18T03:34:47.372Z,16.73
2017-04-18T03:36:00.682Z,16.78
2017-04-18T03:37:14.059Z,16.73
2017-04-18T03:38:27.292Z,16.75
2017-04-18T03:39:40.506Z,16.73
2017-04-18T03:40:53.232Z,16.85
2017-04-18T03:42:06.507Z,16.86
2017-04-18T03:43:19.261Z,16.82
2017-04-18T03:44:32.492Z,16.96
2017-04-18T03:45:45.741Z,16.91
2017-04-18T03:46:58.494Z,16.94
2017-04-18T03:48:11.761Z,16.91
2017-04-18T03:49:24.998Z,17
2017-04-18T03:50:37.724Z,16.91
2017-04-18T03:51:50.980Z,16.89
2017-04-18T03:53:04.415Z,16.88
2017-04-18T03:54:17.171Z,16.93
2017-04-18T03:55:30.414Z,16.93
2017-04-18T03:56:43.665Z,16.94
2017-04-18T03:57:56.873Z,17.01
2017-04-18T03:59:10.132Z,17.01
2017-04-18T04:00:23.392Z,16.97
2017-04-18T04:01:36.620Z,17.01
2017-04-18T04:02:49.826Z,17.04
2017-04-18T04:04:03.081Z,17.06
2017-04-18T04:05:16.308Z,17
2017-04-18T04:06:29.567Z,16.94
2017-04-18T04:07:42.834Z,16.89
2017-04-18T04:08:56.431Z,16.91
2017-04-18T04:10:09.789Z,16.98
2017-04-18T04:11:22.526Z,16.85
2017-04-18T04:12:35.796Z,16.86
2017-04-18T04:13:49.050Z,16.85
2017-04-18T04:15:01.774Z,16.83
2017-04-18T04:16:15.019Z,16.76
2017-04-18T04:17:27.747Z,16.7
2017-04-18T04:18:41.030Z,16.68
2017-04-18T04:19:54.306Z,16.78
2017-04-18T04:21:07.529Z,16.81
2017-04-18T04:22:20.737Z,16.76
2017-04-18T04:23:33.461Z,16.7
2017-04-18T04:24:46.683Z,16.82
2017-04-18T04:26:00.309Z,16.79
2017-04-18T04:27:13.529Z,16.89
2017-04-18T04:28:26.743Z,16.83
2017-04-18T04:29:40.007Z,16.85
2017-04-18T04:30:53.247Z,16.94
2017-04-18T04:32:06.509Z,16.85
2017-04-18T04:33:19.223Z,16.89
2017-04-18T04:34:32.438Z,16.93
2017-04-18T04:35:45.154Z,16.93
2017-04-18T04:36:58.485Z,16.94
2017-04-18T04:38:11.738Z,16.82
2017-04-18T04:39:24.954Z,16.97
2017-04-18T04:40:38.195Z,16.91
2017-04-18T04:41:51.474Z,16.94
2017-04-18T04:43:04.729Z,16.97
2017-04-18T04:44:18.425Z,16.98
2017-04-18T04:45:31.325Z,17.03
2017-04-18T04:46:44.568Z,16.98
2017-04-18T04:47:57.344Z,17.03
2017-04-18T04:49:10.550Z,16.94
2017-04-18T04:50:23.833Z,16.89
2017-04-18T04:51:37.077Z,16.91
2017-04-18T04:52:50.360Z,17.01
2017-04-18T04:54:02.567Z,16.94
2017-04-18T04:55:15.799Z,16.96
2017-04-18T04:56:28.517Z,17.04
2017-04-18T04:57:41.751Z,17.06
2017-04-18T04:58:54.985Z,17.14
2017-04-18T05:00:08.255Z,17.18
2017-04-18T05:01:21.531Z,17.18
2017-04-18T05:02:34.899Z,17.16
2017-04-18T05:03:48.229Z,17.23
2017-04-18T05:05:01.481Z,17.21
2017-04-18T05:06:14.754Z,17.21
2017-04-18T05:07:27.994Z,17.21
2017-04-18T05:08:41.274Z,17.26
2017-04-18T05:09:54.563Z,17.34
2017-04-18T05:11:07.278Z,17.3
2017-04-18T05:12:20.024Z,17.31
2017-04-18T05:13:33.277Z,17.34
2017-04-18T05:14:45.982Z,17.31
2017-04-18T05:15:59.213Z,17.3
2017-04-18T05:17:12.470Z,17.31
2017-04-18T05:18:25.697Z,17.38
2017-04-18T05:19:39.370Z,17.34
2017-04-18T05:20:52.721Z,17.33
2017-04-18T05:22:05.950Z,17.44
2017-04-18T05:23:19.165Z,17.43
2017-04-18T05:24:31.861Z,17.33
2017-04-18T05:25:45.071Z,17.43
2017-04-18T05:26:58.311Z,17.33
2017-04-18T05:28:11.560Z,17.38
2017-04-18T05:29:24.278Z,17.44
2017-04-18T05:30:37.547Z,17.36
2017-04-18T05:31:50.271Z,17.43
2017-04-18T05:33:03.509Z,17.41
2017-04-18T05:34:16.716Z,17.43
2017-04-18T05:35:29.954Z,17.37
2017-04-18T05:36:43.207Z,17.41
2017-04-18T05:37:56.449Z,17.38
2017-04-18T05:39:08.727Z,17.37
2017-04-18T05:40:22.207Z,17.37
2017-04-18T05:41:35.447Z,17.37
2017-04-18T05:42:48.672Z,17.33
2017-04-18T05:44:01.952Z,17.33
2017-04-18T05:45:15.212Z,17.34
2017-04-18T05:46:28.456Z,17.4
2017-04-18T05:47:40.660Z,17.34
2017-04-18T05:48:53.943Z,17.37
2017-04-18T05:50:07.222Z,17.33
2017-04-18T05:51:20.456Z,17.38
2017-04-18T05:52:33.705Z,17.4
2017-04-18T05:53:45.921Z,17.43
2017-04-18T05:54:58.612Z,17.43
2017-04-18T05:56:11.841Z,17.38
2017-04-18T05:57:25.101Z,17.4
2017-04-18T05:58:38.358Z,17.28
2017-04-18T05:59:51.354Z,17.3
2017-04-18T06:01:04.881Z,17.26
2017-04-18T06:02:18.146Z,17.31
2017-04-18T06:03:31.354Z,17.33
2017-04-18T06:04:44.629Z,17.38
2017-04-18T06:05:57.886Z,17.4
2017-04-18T06:07:10.597Z,17.44
2017-04-18T06:08:23.835Z,17.36
2017-04-18T06:09:37.063Z,17.33
2017-04-18T06:10:50.295Z,17.36
2017-04-18T06:12:03.519Z,17.3
2017-04-18T06:13:16.806Z,17.3
2017-04-18T06:14:30.049Z,17.33
2017-04-18T06:15:43.313Z,17.31
2017-04-18T06:16:56.511Z,17.31
2017-04-18T06:18:09.745Z,17.3
2017-04-18T06:19:23.333Z,17.3
2017-04-18T06:20:36.552Z,17.31
2017-04-18T06:21:49.817Z,17.38
2017-04-18T06:23:03.032Z,17.19
2017-04-18T06:24:16.277Z,17.18
2017-04-18T06:25:29.011Z,17.19
2017-04-18T06:26:42.264Z,17.19
2017-04-18T06:27:55.505Z,17.21
2017-04-18T06:29:08.729Z,17.16
2017-04-18T06:30:21.926Z,17.18
2017-04-18T06:31:34.103Z,17.19
2017-04-18T06:32:46.314Z,17.25
2017-04-18T06:33:59.563Z,17.25
2017-04-18T06:35:12.768Z,17.21
2017-04-18T06:36:24.992Z,17.23
2017-04-18T06:37:38.225Z,17.16
2017-04-18T06:38:51.460Z,17.14
2017-04-18T06:40:04.673Z,17.12
2017-04-18T06:41:17.910Z,17.14
2017-04-18T06:42:30.125Z,17.15
2017-04-18T06:43:43.373Z,17.12
2017-04-18T06:44:56.602Z,17.14
2017-04-18T06:46:09.828Z,17.15
2017-04-18T06:47:23.084Z,17.08
2017-04-18T06:48:36.326Z,17.18
2017-04-18T06:49:49.056Z,17.15
2017-04-18T06:51:01.773Z,17.15
2017-04-18T06:52:13.964Z,17.03
2017-04-18T06:53:25.654Z,17.07
2017-04-18T06:54:38.884Z,17.03
2017-04-18T06:55:52.106Z,17.01
2017-04-18T06:57:04.846Z,16.97
2017-04-18T06:58:18.279Z,16.94
2017-04-18T06:59:31.775Z,16.89
2017-04-18T07:00:45.022Z,16.85
2017-04-18T07:01:57.761Z,16.88
2017-04-18T07:03:09.954Z,16.89
2017-04-18T07:04:23.183Z,16.76
2017-04-18T07:05:36.410Z,16.83
2017-04-18T07:06:49.658Z,16.83
2017-04-18T07:08:02.899Z,16.97
2017-04-18T07:09:15.105Z,16.96
2017-04-18T07:10:27.849Z,16.93
2017-04-18T07:11:40.573Z,17
2017-04-18T07:12:51.769Z,17.07
2017-04-18T07:14:03.950Z,17.01
2017-04-18T07:15:17.207Z,17.15
2017-04-18T07:16:30.466Z,17.16
2017-04-18T07:17:43.795Z,17.22
2017-04-18T07:18:57.029Z,17.16
2017-04-18T07:20:10.273Z,17.16
2017-04-18T07:21:23.031Z,17.21
2017-04-18T07:22:34.215Z,17.28
2017-04-18T07:23:45.437Z,17.33
2017-04-18T07:24:58.191Z,17.4
2017-04-18T07:26:10.952Z,17.3
2017-04-18T07:27:24.152Z,17.34
2017-04-18T07:28:36.365Z,17.3
2017-04-18T07:29:49.601Z,17.33
2017-04-18T07:31:02.844Z,17.31
2017-04-18T07:32:15.032Z,17.3
2017-04-18T07:33:26.230Z,17.34
2017-04-18T07:34:39.518Z,17.41
2017-04-18T07:35:51.196Z,17.34
2017-04-18T07:37:03.920Z,17.34
2017-04-18T07:38:16.690Z,17.38
2017-04-18T07:39:29.413Z,17.33
2017-04-18T07:40:42.656Z,17.34
2017-04-18T07:41:54.349Z,17.44
2017-04-18T07:43:06.060Z,17.36
2017-04-18T07:44:17.277Z,17.49
2017-04-18T07:45:28.476Z,17.41
2017-04-18T07:46:39.651Z,17.49
2017-04-18T07:47:51.361Z,17.43
2017-04-18T07:49:04.576Z,17.48
2017-04-18T07:50:17.276Z,17.41
2017-04-18T07:51:28.991Z,17.37
2017-04-18T07:52:40.203Z,17.31
2017-04-18T07:53:51.983Z,17.36
2017-04-18T07:55:03.708Z,17.37
2017-04-18T07:56:15.945Z,17.44
2017-04-18T07:57:27.919Z,17.4
2017-04-18T07:58:39.099Z,17.38
2017-04-18T07:59:51.286Z,17.43
2017-04-18T08:01:04.522Z,17.37
2017-04-18T08:02:16.731Z,17.41
2017-04-18T08:03:29.952Z,17.4
2017-04-18T08:04:42.704Z,17.44
2017-04-18T08:05:55.417Z,17.46
2017-04-18T08:07:08.134Z,17.48
2017-04-18T08:08:20.877Z,17.46
2017-04-18T08:09:34.160Z,17.41
2017-04-18T08:10:47.405Z,17.44
2017-04-18T08:12:00.131Z,17.37
2017-04-18T08:13:12.321Z,17.4
2017-04-18T08:14:25.316Z,17.34
2017-04-18T08:15:38.059Z,17.36
2017-04-18T08:16:50.812Z,17.36
2017-04-18T08:18:03.546Z,17.38
2017-04-18T08:19:16.281Z,17.34
2017-04-18T08:20:29.503Z,17.19
2017-04-18T08:21:42.720Z,17.21
2017-04-18T08:22:54.923Z,17.15
2017-04-18T08:24:08.169Z,17.03
2017-04-18T08:25:20.899Z,16.88
2017-04-18T08:26:33.102Z,16.83
2017-04-18T08:27:46.361Z,16.78
2017-04-18T08:28:59.406Z,16.67
2017-04-18T08:30:12.115Z,16.46
2017-04-18T08:31:24.320Z,16.57
2017-04-18T08:32:36.024Z,16.43
2017-04-18T08:33:48.272Z,16.45
2017-04-18T08:35:00.966Z,16.43
2017-04-18T08:36:13.662Z,16.41
2017-04-18T08:37:26.872Z,16.31
2017-04-18T08:38:40.120Z,16.42
2017-04-18T08:39:52.354Z,16.34
2017-04-18T08:41:05.612Z,16.45
2017-04-18T08:42:18.855Z,16.41
2017-04-18T08:43:32.079Z,16.41
2017-04-18T08:44:44.794Z,16.45
2017-04-18T08:45:58.067Z,16.42
2017-04-18T08:47:11.307Z,16.43
2017-04-18T08:48:24.036Z,16.48
2017-04-18T08:49:37.292Z,16.48
2017-04-18T08:50:49.993Z,16.39
2017-04-18T08:52:02.707Z,16.43
2017-04-18T08:53:14.966Z,16.45
2017-04-18T08:54:26.169Z,16.49
2017-04-18T08:55:37.418Z,16.52
2017-04-18T08:56:48.100Z,16.46
2017-04-18T08:57:58.800Z,16.42
2017-04-18T08:59:10.483Z,16.45
2017-04-18T09:00:23.209Z,16.42
2017-04-18T09:01:35.433Z,16.42
2017-04-18T09:02:48.753Z,16.33
2017-04-18T09:04:01.449Z,16.41
2017-04-18T09:05:14.668Z,16.31
2017-04-18T09:06:27.904Z,16.34
2017-04-18T09:07:41.150Z,16.25
2017-04-18T09:08:54.342Z,16.25
2017-04-18T09:10:07.047Z,16.2
2017-04-18T09:11:19.738Z,16.27
2017-04-18T09:12:32.456Z,16.15
2017-04-18T09:13:45.691Z,16.14
2017-04-18T09:14:58.929Z,16.11
2017-04-18T09:16:11.677Z,16.08
2017-04-18T09:17:24.423Z,16.04
2017-04-18T09:18:37.627Z,16.04
2017-04-18T09:19:51.002Z,16.11
2017-04-18T09:21:04.372Z,15.97
2017-04-18T09:22:18.278Z,15.93
2017-04-18T09:23:32.237Z,16.02
2017-04-18T09:24:45.029Z,16.04
2017-04-18T09:25:58.425Z,16.01
2017-04-18T09:27:12.380Z,16.12
2017-04-18T09:28:25.740Z,16
2017-04-18T09:29:39.126Z,16.12
2017-04-18T09:30:53.373Z,16.05
2017-04-18T09:32:07.318Z,16.09
2017-04-18T09:33:21.234Z,16.05
2017-04-18T09:34:35.230Z,16.11
2017-04-18T09:35:49.179Z,16.11
2017-04-18T09:37:03.162Z,16.12
2017-04-18T09:38:17.112Z,16.31
2017-04-18T09:39:30.509Z,16.31
2017-04-18T09:40:43.890Z,16.23
2017-04-18T09:41:57.822Z,16.2
2017-04-18T09:43:11.251Z,16.15
2017-04-18T09:44:25.200Z,16.08
2017-04-18T09:45:38.664Z,16.17
2017-04-18T09:46:52.601Z,16.27
2017-04-18T09:48:06.538Z,16.23
2017-04-18T09:49:18.815Z,16.2
2017-04-18T09:50:32.276Z,16.33
2017-04-18T09:51:46.230Z,16.31
2017-04-18T09:52:59.586Z,16.35
2017-04-18T09:54:12.985Z,16.42
2017-04-18T09:55:26.923Z,16.48
2017-04-18T09:56:40.858Z,16.58
2017-04-18T09:57:54.291Z,16.49
2017-04-18T09:59:08.226Z,16.52
2017-04-18T10:00:22.177Z,16.6
2017-04-18T10:01:36.089Z,16.63
2017-04-18T10:02:50.028Z,16.66
2017-04-18T10:04:03.998Z,16.68
2017-04-18T10:05:17.379Z,16.71
2017-04-18T10:06:31.329Z,16.79
2017-04-18T10:07:45.265Z,16.76
2017-04-18T10:08:59.215Z,16.67
2017-04-18T10:10:12.600Z,16.73
2017-04-18T10:11:26.582Z,16.83
2017-04-18T10:12:39.419Z,16.85
2017-04-18T10:13:52.224Z,16.75
2017-04-18T10:15:05.598Z,16.7
2017-04-18T10:16:18.430Z,16.68
2017-04-18T10:17:31.290Z,16.78
2017-04-18T10:18:45.267Z,16.73
2017-04-18T10:19:59.193Z,16.71
2017-04-18T10:21:12.585Z,16.73
2017-04-18T10:22:25.974Z,16.7
2017-04-18T10:23:39.957Z,16.85
2017-04-18T10:24:53.911Z,16.79
2017-04-18T10:26:08.072Z,16.86
2017-04-18T10:27:21.971Z,16.83
2017-04-18T10:28:35.348Z,16.79
2017-04-18T10:29:48.163Z,16.93
2017-04-18T10:31:02.104Z,16.97
2017-04-18T10:32:16.087Z,17.06
2017-04-18T10:33:28.910Z,17.01
2017-04-18T10:34:42.265Z,17.19
2017-04-18T10:35:55.669Z,17.22
2017-04-18T10:37:09.608Z,17.38
2017-04-18T10:38:22.970Z,17.37
2017-04-18T10:39:37.085Z,17.3
2017-04-18T10:40:51.259Z,17.44
2017-04-18T10:42:04.637Z,17.43
2017-04-18T10:43:18.566Z,17.48
2017-04-18T10:44:31.972Z,17.49
2017-04-18T10:45:45.399Z,17.48
2017-04-18T10:46:58.195Z,17.51
2017-04-18T10:48:11.583Z,17.62
2017-04-18T10:49:24.424Z,17.62
2017-04-18T10:50:38.352Z,17.68
2017-04-18T10:51:51.749Z,17.75
2017-04-18T10:53:05.674Z,17.86
2017-04-18T10:54:19.613Z,18.05
2017-04-18T10:55:32.988Z,18.07
2017-04-18T10:56:46.449Z,18.18
2017-04-18T10:58:00.402Z,18.08
2017-04-18T10:59:14.369Z,18.18
2017-04-18T11:00:28.348Z,18.27
2017-04-18T11:01:42.319Z,18.29
2017-04-18T11:02:56.276Z,18.48
2017-04-18T11:04:09.671Z,18.5
2017-04-18T11:05:22.470Z,18.54
2017-04-18T11:06:35.862Z,18.69
2017-04-18T11:07:49.263Z,18.75
2017-04-18T11:09:03.226Z,18.78
2017-04-18T11:10:16.654Z,18.8
2017-04-18T11:11:29.492Z,18.78
2017-04-18T11:12:42.331Z,18.72
2017-04-18T11:13:55.181Z,18.7
2017-04-18T11:15:08.047Z,18.88
2017-04-18T11:16:20.856Z,18.94
2017-04-18T11:17:34.768Z,18.99
2017-04-18T11:18:48.445Z,19.02
2017-04-18T11:20:01.838Z,19
2017-04-18T11:21:14.681Z,18.92
2017-04-18T11:22:28.783Z,19.13
2017-04-18T11:23:42.751Z,19.1
2017-04-18T11:24:56.195Z,19.25
2017-04-18T11:26:10.184Z,19.33
2017-04-18T11:27:23.584Z,19.39
2017-04-18T11:28:37.025Z,19.47
2017-04-18T11:29:51.042Z,19.59
2017-04-18T11:31:05.011Z,19.61
2017-04-18T11:32:18.409Z,19.71
2017-04-18T11:33:32.355Z,20.11
2017-04-18T11:34:46.326Z,20.42
2017-04-18T11:36:00.253Z,20.35
2017-04-18T11:37:13.635Z,20.16
2017-04-18T11:38:27.575Z,19.78
2017-04-18T11:39:40.999Z,19.46
2017-04-18T11:40:53.832Z,19.36
2017-04-18T11:42:07.225Z,19.22
2017-04-18T11:43:21.196Z,19.26
2017-04-18T11:44:34.583Z,19.32
2017-04-18T11:45:47.992Z,19.22
2017-04-18T11:47:01.399Z,19.28
2017-04-18T11:48:15.328Z,19.39
2017-04-18T11:49:29.286Z,19.41
2017-04-18T11:50:42.163Z,19.46
2017-04-18T11:51:55.022Z,19.37
2017-04-18T11:53:09.190Z,19.39
2017-04-18T11:54:22.595Z,19.37
2017-04-18T11:55:36.511Z,19.31
2017-04-18T11:56:49.363Z,19.14
2017-04-18T11:58:03.532Z,19.16
2017-04-18T11:59:17.004Z,19.4
2017-04-18T12:00:30.969Z,19.46
2017-04-18T12:01:44.940Z,19.43
2017-04-18T12:02:58.336Z,19.47
2017-04-18T12:04:12.301Z,19.55
2017-04-18T12:05:25.700Z,19.55
2017-04-18T12:06:39.069Z,19.48
2017-04-18T12:07:52.087Z,19.47
2017-04-18T12:09:05.036Z,19.46
2017-04-18T12:10:17.847Z,19.31
2017-04-18T12:11:31.766Z,19.21
2017-04-18T12:12:45.191Z,19.36
2017-04-18T12:13:58.576Z,19.44
2017-04-18T12:15:12.509Z,19.5
2017-04-18T12:16:25.904Z,19.43
2017-04-18T12:17:39.292Z,19.46
2017-04-18T12:18:53.332Z,19.16
2017-04-18T12:20:06.176Z,19.07
2017-04-18T12:21:20.147Z,19.07
2017-04-18T12:22:33.529Z,19.06
2017-04-18T12:23:46.938Z,19.11
2017-04-18T12:25:00.901Z,19.25
2017-04-18T12:26:14.894Z,19.28
2017-04-18T12:27:28.318Z,19.37
2017-04-18T12:28:42.266Z,19.43
2017-04-18T12:29:56.244Z,19.59
2017-04-18T12:31:09.090Z,19.66
2017-04-18T12:32:23.136Z,19.81
2017-04-18T12:33:36.510Z,19.96
2017-04-18T12:34:50.453Z,20.06
2017-04-18T12:36:04.632Z,19.83
2017-04-18T12:37:17.483Z,19.87
2017-04-18T12:38:30.869Z,19.78
2017-04-18T12:39:44.230Z,19.77
2017-04-18T12:40:57.708Z,19.62
2017-04-18T12:42:11.101Z,19.66
2017-04-18T12:43:22.824Z,19.73
2017-04-18T12:44:35.643Z,19.87
2017-04-18T12:45:49.611Z,20.01
2017-04-18T12:47:02.990Z,20.06
2017-04-18T12:48:16.378Z,19.88
2017-04-18T12:49:29.419Z,19.71
2017-04-18T12:50:43.354Z,19.62
2017-04-18T12:51:57.345Z,19.44
2017-04-18T12:53:10.732Z,19.56
2017-04-18T12:54:24.691Z,19.71
2017-04-18T12:55:38.074Z,20.1
2017-04-18T12:56:51.472Z,20.51
2017-04-18T12:58:04.292Z,20.82
2017-04-18T12:59:17.275Z,21.34
2017-04-18T13:00:31.800Z,21.49
2017-04-18T13:01:45.797Z,21.34
2017-04-18T13:02:58.323Z,21.09
2017-04-18T13:04:11.182Z,21.09
2017-04-18T13:05:24.567Z,21.09
2017-04-18T13:06:37.371Z,20.85
2017-04-18T13:07:49.608Z,20.77
2017-04-18T13:09:02.972Z,20.82
2017-04-18T13:10:15.810Z,20.74
2017-04-18T13:11:29.764Z,20.55
2017-04-18T13:12:42.031Z,20.58
2017-04-18T13:13:54.297Z,20.43
2017-04-18T13:15:07.710Z,20.32
2017-04-18T13:16:20.527Z,20.23
2017-04-18T13:17:34.118Z,20.28
2017-04-18T13:18:47.701Z,20.29
2017-04-18T13:20:01.100Z,20.29
2017-04-18T13:21:14.540Z,20.43
2017-04-18T13:22:27.383Z,20.79
2017-04-18T13:23:38.531Z,20.77
2017-04-18T13:24:50.803Z,20.95
2017-04-18T13:26:03.629Z,21.29
2017-04-18T13:27:17.000Z,21.32
2017-04-18T13:28:30.434Z,21.21
2017-04-18T13:29:43.808Z,21.5
2017-04-18T13:30:55.664Z,21.46
2017-04-18T13:32:09.025Z,21.59
2017-04-18T13:33:20.740Z,21.8
2017-04-18T13:34:33.061Z,21.74
2017-04-18T13:35:46.490Z,21.8
2017-04-18T13:36:59.871Z,22.03
2017-04-18T13:38:13.805Z,22.02
2017-04-18T13:39:27.805Z,21.8
2017-04-18T13:40:41.210Z,21.98
2017-04-18T13:41:54.617Z,22.07
2017-04-18T13:43:06.926Z,22.27
2017-04-18T13:44:18.700Z,22.64
2017-04-18T13:45:30.961Z,22.85
2017-04-18T13:46:43.338Z,23.31
2017-04-18T13:47:56.342Z,23.13
2017-04-18T13:49:09.177Z,22.46
2017-04-18T13:50:22.583Z,22.22
2017-04-18T13:51:35.414Z,22.03
2017-04-18T13:52:48.248Z,21.72
2017-04-18T13:54:00.478Z,21.67
2017-04-18T13:55:12.797Z,22.14
2017-04-18T13:56:24.535Z,22.57
2017-04-18T13:57:37.373Z,22.75
2017-04-18T13:58:51.301Z,22.36
2017-04-18T14:00:04.154Z,22.24
2017-04-18T14:01:17.763Z,22.02
2017-04-18T14:02:30.210Z,22.09
2017-04-18T14:03:42.480Z,22.24
2017-04-18T14:04:54.318Z,22.43
2017-04-18T14:06:06.117Z,22.73
2017-04-18T14:07:18.422Z,22.83
2017-04-18T14:08:31.843Z,22.79
2017-04-18T14:09:45.233Z,22.8
2017-04-18T14:10:59.199Z,22.61
2017-04-18T14:12:13.173Z,22.61
2017-04-18T14:13:27.144Z,22.6
2017-04-18T14:14:41.098Z,22.64
2017-04-18T14:15:55.059Z,22.83
2017-04-18T14:17:09.055Z,23.13
2017-04-18T14:18:22.470Z,22.77
2017-04-18T14:19:36.466Z,22.36
2017-04-18T14:20:50.428Z,21.9
2017-04-18T14:22:03.839Z,21.88
2017-04-18T14:23:17.790Z,22.1
2017-04-18T14:24:31.196Z,22.09
2017-04-18T14:25:45.160Z,22.22
2017-04-18T14:26:59.113Z,22.61
2017-04-18T14:28:13.262Z,22.85
2017-04-18T14:29:26.837Z,23.02
2017-04-18T14:30:40.801Z,23.17
2017-04-18T14:31:54.256Z,22.92
2017-04-18T14:33:07.678Z,22.6
2017-04-18T14:34:21.605Z,22.75
2017-04-18T14:35:35.526Z,23
2017-04-18T14:36:48.889Z,23.12
2017-04-18T14:38:02.819Z,23.35
2017-04-18T14:39:16.783Z,23.2
2017-04-18T14:40:30.200Z,22.82
2017-04-18T14:41:44.141Z,22.52
2017-04-18T14:42:58.095Z,22.27
2017-04-18T14:44:11.503Z,22.33
2017-04-18T14:45:24.934Z,22.55
2017-04-18T14:46:38.869Z,22.65
2017-04-18T14:47:52.258Z,23.02
2017-04-18T14:49:06.211Z,23.09
2017-04-18T14:50:20.143Z,23.01
2017-04-18T14:51:34.105Z,22.98
2017-04-18T14:52:47.625Z,23.17
2017-04-18T14:54:01.594Z,23.54
2017-04-18T14:55:15.071Z,23.2
2017-04-18T14:56:28.509Z,22.72
2017-04-18T14:57:42.478Z,22.54
2017-04-18T14:58:56.435Z,22.83
2017-04-18T15:00:10.408Z,23.01
2017-04-18T15:01:24.360Z,22.52
2017-04-18T15:02:37.770Z,22.24
2017-04-18T15:03:51.766Z,22.05
2017-04-18T15:05:05.715Z,22.1
2017-04-18T15:06:19.124Z,22.15
2017-04-18T15:07:32.553Z,21.88
2017-04-18T15:08:46.505Z,21.96
2017-04-18T15:10:00.609Z,21.74
2017-04-18T15:11:13.996Z,21.86
2017-04-18T15:12:27.392Z,21.98
2017-04-18T15:13:41.448Z,22.12
2017-04-18T15:14:54.870Z,22.07
2017-04-18T15:16:08.257Z,22
2017-04-18T15:17:22.234Z,22.18
2017-04-18T15:18:36.215Z,22.7
2017-04-18T15:19:50.160Z,22.51
2017-04-18T15:21:04.132Z,22.42
2017-04-18T15:22:18.075Z,22.24
2017-04-18T15:23:31.990Z,22.57
2017-04-18T15:24:45.935Z,22.79
2017-04-18T15:25:59.338Z,22.82
2017-04-18T15:27:13.333Z,22.68
2017-04-18T15:28:26.170Z,22.28
2017-04-18T15:29:40.119Z,22.25
2017-04-18T15:30:54.080Z,22.36
2017-04-18T15:32:08.044Z,22.57
2017-04-18T15:33:20.907Z,22.57
2017-04-18T15:34:35.054Z,21.92
2017-04-18T15:35:48.992Z,21.9
2017-04-18T15:37:02.937Z,21.91
2017-04-18T15:38:16.330Z,21.75
2017-04-18T15:39:30.260Z,21.35
2017-04-18T15:40:43.873Z,21.42
2017-04-18T15:41:57.128Z,21.56
2017-04-18T15:43:11.094Z,21.59
2017-04-18T15:44:24.353Z,21.56
2017-04-18T15:45:37.573Z,21.75